Time,TemperatureF,DewpointF,PressureIn,WindDirection,WindDirectionDegrees,WindSpeedMPH,WindSpeedGustMPH,Humidity,HourlyPrecipIn,Conditions,Clouds,dailyrainin,SoftwareType,DateUTC
2013-04-21 00:05:00,66.7,62.7,30.10,NE,52,0.0,1.0,87,0.00,,,0.00,Wunderground v.1.15,2013-04-21 04:05:00,
2013-04-21 00:10:00,66.6,62.6,30.10,NE,51,0.0,1.0,87,0.00,,,0.00,Wunderground v.1.15,2013-04-21 04:10:00,
2013-04-21 00:15:00,66.5,62.5,30.11,NE,51,0.0,0.0,87,0.00,,,0.00,Wunderground v.1.15,2013-04-21 04:15:00,
2013-04-21 00:20:00,66.3,62.3,30.11,NE,51,0.0,2.0,87,0.00,,,0.00,Wunderground v.1.15,2013-04-21 04:20:00,
2013-04-21 00:25:00,66.1,62.1,30.11,NE,51,1.0,1.0,87,0.00,,,0.00,Wunderground v.1.15,2013-04-21 04:25:00,
2013-04-21 00:30:00,65.9,61.9,30.11,NE,51,0.0,1.0,87,0.00,,,0.00,Wunderground v.1.15,2013-04-21 04:30:00,
2013-04-21 00:35:00,65.8,61.8,30.11,NE,50,0.0,3.0,87,0.00,,,0.00,Wunderground v.1.15,2013-04-21 04:35:00,
2013-04-21 00:45:00,65.6,61.9,30.11,NE,48,1.0,1.0,88,0.00,,,0.00,Wunderground v.1.15,2013-04-21 04:45:00,
2013-04-21 00:50:00,65.6,61.9,30.11,NE,48,0.0,1.0,88,0.00,,,0.00,Wunderground v.1.15,2013-04-21 04:50:00,
2013-04-21 00:55:00,65.4,61.8,30.11,NE,48,0.0,0.0,88,0.00,,,0.00,Wunderground v.1.15,2013-04-21 04:55:00,
2013-04-21 01:00:00,65.2,61.6,30.10,NE,48,0.0,1.0,88,0.00,,,0.00,Wunderground v.1.15,2013-04-21 05:00:00,
2013-04-21 01:05:00,65.0,61.4,30.10,NE,46,0.0,2.0,88,0.00,,,0.00,Wunderground v.1.15,2013-04-21 05:05:00,
2013-04-21 01:15:00,64.6,61.0,30.10,NE,44,0.0,2.0,88,0.00,,,0.00,Wunderground v.1.15,2013-04-21 05:15:00,
2013-04-21 01:20:00,64.2,60.6,30.10,NE,42,0.0,2.0,88,0.00,,,0.00,Wunderground v.1.15,2013-04-21 05:20:00,
2013-04-21 01:25:00,63.9,60.3,30.10,NE,36,1.0,2.0,88,0.00,,,0.00,Wunderground v.1.15,2013-04-21 05:25:00,
2013-04-21 01:30:00,63.7,60.1,30.09,NNE,32,1.0,1.0,88,0.00,,,0.00,Wunderground v.1.15,2013-04-21 05:30:00,
2013-04-21 01:35:00,63.6,60.0,30.09,NNE,30,1.0,2.0,88,0.00,,,0.00,Wunderground v.1.15,2013-04-21 05:35:00,
2013-04-21 01:40:00,63.3,59.7,30.09,NNE,30,0.0,2.0,88,0.00,,,0.00,Wunderground v.1.15,2013-04-21 05:40:00,
2013-04-21 01:50:00,62.9,59.3,30.09,NNE,28,1.0,2.0,88,0.00,,,0.00,Wunderground v.1.15,2013-04-21 05:50:00,
2013-04-21 01:55:00,62.8,59.2,30.08,NNE,26,1.0,3.0,88,0.00,,,0.00,Wunderground v.1.15,2013-04-21 05:55:00,
2013-04-21 02:00:00,62.8,59.2,30.08,NNE,26,1.0,2.0,88,0.00,,,0.00,Wunderground v.1.15,2013-04-21 06:00:00,
2013-04-21 02:05:00,62.7,59.1,30.08,NE,48,1.0,2.0,88,0.00,,,0.00,Wunderground v.1.15,2013-04-21 06:05:00,
2013-04-21 02:10:00,62.7,59.1,30.08,NE,40,0.0,2.0,88,0.00,,,0.00,Wunderground v.1.15,2013-04-21 06:10:00,
2013-04-21 02:15:00,62.8,59.2,30.08,NE,39,0.0,2.0,88,0.00,,,0.00,Wunderground v.1.15,2013-04-21 06:15:00,
2013-04-21 02:20:00,62.7,59.1,30.08,NE,39,0.0,2.0,88,0.00,,,0.00,Wunderground v.1.15,2013-04-21 06:20:00,
2013-04-21 02:25:00,62.8,59.2,30.07,NE,42,1.0,2.0,88,0.00,,,0.00,Wunderground v.1.15,2013-04-21 06:25:00,
2013-04-21 02:35:00,62.9,59.3,30.07,NE,42,0.0,2.0,88,0.00,,,0.00,Wunderground v.1.15,2013-04-21 06:35:00,
2013-04-21 02:40:00,63.0,59.4,30.07,NE,42,1.0,1.0,88,0.00,,,0.00,Wunderground v.1.15,2013-04-21 06:40:00,
2013-04-21 02:45:00,63.0,59.4,30.07,NE,42,0.0,2.0,88,0.00,,,0.00,Wunderground v.1.15,2013-04-21 06:45:00,
2013-04-21 02:55:00,63.0,59.4,30.06,NE,40,0.0,2.0,88,0.00,,,0.00,Wunderground v.1.15,2013-04-21 06:55:00,
2013-04-21 03:00:00,63.0,59.4,30.06,NE,40,0.0,2.0,88,0.00,,,0.00,Wunderground v.1.15,2013-04-21 07:00:00,
2013-04-21 03:05:00,63.1,59.5,30.06,NE,40,0.0,2.0,88,0.00,,,0.00,Wunderground v.1.15,2013-04-21 07:05:00,
2013-04-21 03:10:00,63.1,59.5,30.06,NE,37,0.0,2.0,88,0.00,,,0.00,Wunderground v.1.15,2013-04-21 07:10:00,
2013-04-21 03:15:00,63.1,59.5,30.06,NE,37,0.0,2.0,88,0.00,,,0.00,Wunderground v.1.15,2013-04-21 07:15:00,
2013-04-21 03:20:00,63.1,59.5,30.06,NE,55,0.0,2.0,88,0.00,,,0.00,Wunderground v.1.15,2013-04-21 07:20:00,
2013-04-21 03:25:00,63.2,59.6,30.06,NE,55,0.0,2.0,88,0.00,,,0.00,Wunderground v.1.15,2013-04-21 07:25:00,
2013-04-21 03:35:00,63.3,59.7,30.06,NE,54,0.0,2.0,88,0.00,,,0.00,Wunderground v.1.15,2013-04-21 07:35:00,
2013-04-21 03:40:00,63.2,59.6,30.06,NE,54,0.0,2.0,88,0.00,,,0.00,Wunderground v.1.15,2013-04-21 07:40:00,
2013-04-21 03:45:00,63.2,59.3,30.06,NE,54,0.0,2.0,87,0.00,,,0.00,Wunderground v.1.15,2013-04-21 07:45:00,
2013-04-21 03:55:00,63.2,59.3,30.06,NE,54,0.0,2.0,87,0.00,,,0.00,Wunderground v.1.15,2013-04-21 07:55:00,
2013-04-21 04:00:00,63.2,59.3,30.06,NE,53,0.0,2.0,87,0.00,,,0.00,Wunderground v.1.15,2013-04-21 08:00:00,
2013-04-21 04:10:00,63.1,59.2,30.06,NE,52,0.0,2.0,87,0.00,,,0.00,Wunderground v.1.15,2013-04-21 08:10:00,
2013-04-21 04:20:00,63.0,59.1,30.06,NE,51,0.0,2.0,87,0.00,,,0.00,Wunderground v.1.15,2013-04-21 08:20:00,
2013-04-21 04:30:00,63.0,59.1,30.06,NE,46,1.0,1.0,87,0.00,,,0.00,Wunderground v.1.15,2013-04-21 08:30:00,
2013-04-21 04:35:00,63.0,59.1,30.06,NE,46,0.0,2.0,87,0.00,,,0.00,Wunderground v.1.15,2013-04-21 08:35:00,
2013-04-21 04:40:00,63.0,59.1,30.06,NE,45,0.0,2.0,87,0.00,,,0.00,Wunderground v.1.15,2013-04-21 08:40:00,
2013-04-21 04:50:00,63.1,59.2,30.06,NE,45,0.0,2.0,87,0.00,,,0.00,Wunderground v.1.15,2013-04-21 08:50:00,
2013-04-21 05:00:00,63.1,59.2,30.06,NE,45,0.0,2.0,87,0.00,,,0.00,Wunderground v.1.15,2013-04-21 09:00:00,
2013-04-21 05:05:00,63.1,59.2,30.06,NE,45,0.0,2.0,87,0.00,,,0.00,Wunderground v.1.15,2013-04-21 09:05:00,
2013-04-21 05:10:00,63.2,59.3,30.06,NE,45,0.0,2.0,87,0.00,,,0.00,Wunderground v.1.15,2013-04-21 09:10:00,
2013-04-21 05:15:00,63.2,58.9,30.06,NE,45,0.0,2.0,86,0.00,,,0.00,Wunderground v.1.15,2013-04-21 09:15:00,
2013-04-21 05:25:00,63.3,59.0,30.06,NE,45,0.0,2.0,86,0.00,,,0.00,Wunderground v.1.15,2013-04-21 09:25:00,
2013-04-21 05:35:00,63.3,59.0,30.06,NE,45,0.0,2.0,86,0.00,,,0.00,Wunderground v.1.15,2013-04-21 09:35:00,
2013-04-21 05:45:00,63.3,59.0,30.06,NE,45,0.0,2.0,86,0.00,,,0.00,Wunderground v.1.15,2013-04-21 09:45:00,
2013-04-21 05:55:00,63.4,59.1,30.07,NE,45,0.0,2.0,86,0.00,,,0.00,Wunderground v.1.15,2013-04-21 09:55:00,
2013-04-21 06:00:00,63.4,59.1,30.07,NE,45,0.0,2.0,86,0.00,,,0.00,Wunderground v.1.15,2013-04-21 10:00:00,
2013-04-21 06:05:00,63.4,59.1,30.06,NE,45,0.0,2.0,86,0.00,,,0.00,Wunderground v.1.15,2013-04-21 10:05:00,
2013-04-21 06:10:00,63.4,59.1,30.07,NE,45,0.0,2.0,86,0.00,,,0.00,Wunderground v.1.15,2013-04-21 10:10:00,
2013-04-21 06:15:00,63.4,59.1,30.06,NE,45,0.0,2.0,86,0.00,,,0.00,Wunderground v.1.15,2013-04-21 10:15:00,
2013-04-21 06:25:00,63.5,59.2,30.07,NE,44,0.0,2.0,86,0.00,,,0.00,Wunderground v.1.15,2013-04-21 10:25:00,
2013-04-21 06:35:00,63.5,59.2,30.07,NE,44,0.0,2.0,86,0.00,,,0.00,Wunderground v.1.15,2013-04-21 10:35:00,
2013-04-21 06:40:00,63.4,59.1,30.07,NE,44,0.0,2.0,86,0.00,,,0.00,Wunderground v.1.15,2013-04-21 10:40:00,
2013-04-21 06:50:00,63.4,59.1,30.08,NE,44,0.0,2.0,86,0.00,,,0.00,Wunderground v.1.15,2013-04-21 10:50:00,
2013-04-21 06:55:00,63.4,59.1,30.08,NE,44,0.0,2.0,86,0.00,,,0.00,Wunderground v.1.15,2013-04-21 10:55:00,
2013-04-21 07:05:00,63.5,59.6,30.08,NE,44,1.0,2.0,87,0.00,,,0.00,Wunderground v.1.15,2013-04-21 11:05:00,
2013-04-21 07:15:00,63.7,59.8,30.09,NE,44,0.0,2.0,87,0.00,,,0.00,Wunderground v.1.15,2013-04-21 11:15:00,
2013-04-21 07:20:00,63.8,59.5,30.09,NE,44,0.0,2.0,86,0.00,,,0.00,Wunderground v.1.15,2013-04-21 11:20:00,
2013-04-21 07:30:00,63.8,59.5,30.09,North,9,0.0,2.0,86,0.00,,,0.00,Wunderground v.1.15,2013-04-21 11:30:00,
2013-04-21 07:35:00,64.0,59.7,30.10,NE,38,0.0,2.0,86,0.00,,,0.00,Wunderground v.1.15,2013-04-21 11:35:00,
2013-04-21 07:45:00,64.2,59.9,30.10,NNE,29,1.0,2.0,86,0.00,,,0.00,Wunderground v.1.15,2013-04-21 11:45:00,
2013-04-21 07:55:00,64.4,60.1,30.10,NNE,26,1.0,2.0,86,0.00,,,0.00,Wunderground v.1.15,2013-04-21 11:55:00,
2013-04-21 08:00:00,64.5,60.2,30.09,NNE,26,0.0,2.0,86,0.00,,,0.00,Wunderground v.1.15,2013-04-21 12:00:00,
2013-04-21 08:05:00,64.6,60.3,30.09,NNE,26,0.0,2.0,86,0.00,,,0.00,Wunderground v.1.15,2013-04-21 12:05:00,
2013-04-21 08:15:00,64.9,60.6,30.09,NE,38,1.0,2.0,86,0.00,,,0.00,Wunderground v.1.15,2013-04-21 12:15:00,
2013-04-21 08:20:00,65.0,60.7,30.08,NE,35,1.0,2.0,86,0.00,,,0.00,Wunderground v.1.15,2013-04-21 12:20:00,
2013-04-21 08:25:00,65.2,60.9,30.09,NNE,30,1.0,2.0,86,0.00,,,0.00,Wunderground v.1.15,2013-04-21 12:25:00,
2013-04-21 08:30:00,65.4,61.1,30.09,NE,44,1.0,2.0,86,0.00,,,0.00,Wunderground v.1.15,2013-04-21 12:30:00,
2013-04-21 08:35:00,65.6,61.3,30.09,NE,40,0.0,2.0,86,0.00,,,0.00,Wunderground v.1.15,2013-04-21 12:35:00,
2013-04-21 08:40:00,66.2,61.9,30.09,NE,38,1.0,1.0,86,0.00,,,0.00,Wunderground v.1.15,2013-04-21 12:40:00,
2013-04-21 08:45:00,66.7,62.0,30.09,NE,36,0.0,2.0,85,0.00,,,0.00,Wunderground v.1.15,2013-04-21 12:45:00,
2013-04-21 08:55:00,67.9,62.5,30.09,NE,51,1.0,2.0,83,0.00,,,0.00,Wunderground v.1.15,2013-04-21 12:55:00,
2013-04-21 09:00:00,68.3,62.9,30.09,NE,36,1.0,2.0,83,0.00,,,0.00,Wunderground v.1.15,2013-04-21 13:00:00,
2013-04-21 09:10:00,68.8,63.4,30.10,NE,46,1.0,1.0,83,0.00,,,0.00,Wunderground v.1.15,2013-04-21 13:10:00,
2013-04-21 09:20:00,69.4,63.7,30.10,NNE,28,1.0,4.0,82,0.00,,,0.00,Wunderground v.1.15,2013-04-21 13:20:00,
2013-04-21 09:30:00,70.0,63.9,30.09,ENE,59,1.0,4.0,81,0.00,,,0.00,Wunderground v.1.15,2013-04-21 13:30:00,
2013-04-21 09:35:00,70.1,64.0,30.10,NNE,24,1.0,4.0,81,0.00,,,0.00,Wunderground v.1.15,2013-04-21 13:35:00,
2013-04-21 09:40:00,70.2,64.1,30.09,NE,52,1.0,1.0,81,0.00,,,0.00,Wunderground v.1.15,2013-04-21 13:40:00,
2013-04-21 09:45:00,70.8,64.7,30.09,ENE,76,1.0,3.0,81,0.00,,,0.00,Wunderground v.1.15,2013-04-21 13:45:00,
2013-04-21 09:55:00,71.5,64.6,30.09,NNE,25,1.0,2.0,79,0.00,,,0.00,Wunderground v.1.15,2013-04-21 13:55:00,
2013-04-21 10:00:00,71.8,64.9,30.09,NNE,20,1.0,2.0,79,0.00,,,0.00,Wunderground v.1.15,2013-04-21 14:00:00,
2013-04-21 10:10:00,72.5,65.6,30.10,ENE,59,1.0,3.0,79,0.00,,,0.00,Wunderground v.1.15,2013-04-21 14:10:00,
2013-04-21 10:20:00,73.0,65.7,30.10,NNE,28,1.0,1.0,78,0.00,,,0.00,Wunderground v.1.15,2013-04-21 14:20:00,
2013-04-21 10:30:00,73.8,66.1,30.10,ENE,70,1.0,1.0,77,0.00,,,0.00,Wunderground v.1.15,2013-04-21 14:30:00,
2013-04-21 10:35:00,74.2,66.5,30.09,East,98,1.0,2.0,77,0.00,,,0.00,Wunderground v.1.15,2013-04-21 14:35:00,
2013-04-21 10:45:00,74.5,66.8,30.10,ENE,64,1.0,2.0,77,0.00,,,0.00,Wunderground v.1.15,2013-04-21 14:45:00,
2013-04-21 10:55:00,75.2,66.7,30.11,NE,44,1.0,2.0,75,0.00,,,0.00,Wunderground v.1.15,2013-04-21 14:55:00,
2013-04-21 11:05:00,75.8,67.7,30.10,NE,44,0.0,2.0,76,0.00,,,0.00,Wunderground v.1.15,2013-04-21 15:05:00,
2013-04-21 11:10:00,76.3,67.4,30.10,NE,56,1.0,2.0,74,0.00,,,0.00,Wunderground v.1.15,2013-04-21 15:10:00,
2013-04-21 11:20:00,77.1,68.2,30.11,NNE,28,1.0,2.0,74,0.00,,,0.00,Wunderground v.1.15,2013-04-21 15:20:00,
2013-04-21 11:30:00,77.3,68.0,30.10,NE,49,2.0,2.0,73,0.00,,,0.00,Wunderground v.1.15,2013-04-21 15:30:00,
2013-04-21 11:40:00,78.2,68.4,30.10,NNE,32,1.0,2.0,72,0.00,,,0.00,Wunderground v.1.15,2013-04-21 15:40:00,
2013-04-21 11:45:00,78.2,68.4,30.10,NNE,17,1.0,2.0,72,0.00,,,0.00,Wunderground v.1.15,2013-04-21 15:45:00,
2013-04-21 11:55:00,78.6,68.8,30.09,ENE,59,1.0,2.0,72,0.00,,,0.00,Wunderground v.1.15,2013-04-21 15:55:00,
2013-04-21 12:05:00,79.3,69.1,30.09,ENE,61,1.0,2.0,71,0.00,,,0.00,Wunderground v.1.15,2013-04-21 16:05:00,
2013-04-21 12:15:00,79.7,69.0,30.09,ESE,105,1.0,3.0,70,0.00,,,0.00,Wunderground v.1.15,2013-04-21 16:15:00,
2013-04-21 12:25:00,79.8,68.7,30.09,ENE,71,2.0,2.0,69,0.00,,,0.00,Wunderground v.1.15,2013-04-21 16:25:00,
2013-04-21 12:30:00,80.3,69.6,30.10,WNW,301,1.0,2.0,70,0.00,,,0.00,Wunderground v.1.15,2013-04-21 16:30:00,
2013-04-21 12:40:00,80.5,68.5,30.09,East,89,1.0,2.0,67,0.00,,,0.00,Wunderground v.1.15,2013-04-21 16:40:00,
2013-04-21 12:50:00,80.3,68.3,30.09,East,88,1.0,1.0,67,0.00,,,0.00,Wunderground v.1.15,2013-04-21 16:50:00,
2013-04-21 13:00:00,80.7,69.2,30.08,East,88,0.0,2.0,68,0.00,,,0.00,Wunderground v.1.15,2013-04-21 17:00:00,
2013-04-21 13:05:00,81.6,69.6,30.08,NE,38,1.0,4.0,67,0.00,,,0.00,Wunderground v.1.15,2013-04-21 17:05:00,
2013-04-21 13:15:00,81.8,69.8,30.08,NE,55,1.0,3.0,67,0.00,,,0.00,Wunderground v.1.15,2013-04-21 17:15:00,
2013-04-21 13:25:00,81.5,69.0,30.08,NE,54,0.0,2.0,66,0.00,,,0.00,Wunderground v.1.15,2013-04-21 17:25:00,
2013-04-21 13:35:00,81.6,69.1,30.08,NE,51,0.0,2.0,66,0.00,,,0.00,Wunderground v.1.15,2013-04-21 17:35:00,
2013-04-21 13:45:00,81.5,69.0,30.08,NE,42,1.0,2.0,66,0.00,,,0.00,Wunderground v.1.15,2013-04-21 17:45:00,
2013-04-21 13:50:00,81.6,69.1,30.06,NE,42,0.0,2.0,66,0.00,,,0.00,Wunderground v.1.15,2013-04-21 17:50:00,
2013-04-21 14:00:00,82.6,69.6,30.06,NE,43,0.0,2.0,65,0.00,,,0.00,Wunderground v.1.15,2013-04-21 18:00:00,
2013-04-21 14:10:00,83.1,69.2,30.05,NNE,30,1.0,1.0,63,0.00,,,0.00,Wunderground v.1.15,2013-04-21 18:10:00,
2013-04-21 14:20:00,83.2,69.3,30.05,NNE,32,1.0,1.0,63,0.00,,,0.00,Wunderground v.1.15,2013-04-21 18:20:00,
2013-04-21 14:25:00,83.2,68.8,30.05,NNE,32,1.0,2.0,62,0.00,,,0.00,Wunderground v.1.15,2013-04-21 18:25:00,
2013-04-21 14:35:00,83.1,68.7,30.05,ENE,76,1.0,3.0,62,0.00,,,0.00,Wunderground v.1.15,2013-04-21 18:35:00,
2013-04-21 14:45:00,83.2,67.9,30.05,East,96,1.0,2.0,60,0.00,,,0.00,Wunderground v.1.15,2013-04-21 18:45:00,
2013-04-21 14:55:00,83.1,68.3,30.04,SSE,154,0.0,3.0,61,0.00,,,0.00,Wunderground v.1.15,2013-04-21 18:55:00,
2013-04-21 15:05:00,83.0,69.1,30.04,SSE,154,0.0,2.0,63,0.00,,,0.00,Wunderground v.1.15,2013-04-21 19:05:00,
2013-04-21 15:10:00,82.7,68.8,30.04,East,96,0.0,2.0,63,0.00,,,0.00,Wunderground v.1.15,2013-04-21 19:10:00,
2013-04-21 15:20:00,82.4,71.2,30.03,East,96,0.0,2.0,69,0.00,,,0.01,Wunderground v.1.15,2013-04-21 19:20:00,
2013-04-21 15:30:00,79.8,72.3,30.03,East,96,0.0,2.0,78,0.07,,,0.02,Wunderground v.1.15,2013-04-21 19:30:00,
2013-04-21 15:35:00,78.5,72.5,30.02,East,96,0.0,2.0,82,0.04,,,0.02,Wunderground v.1.15,2013-04-21 19:35:00,
2013-04-21 15:45:00,77.5,71.9,30.02,East,96,0.0,2.0,83,0.00,,,0.02,Wunderground v.1.15,2013-04-21 19:45:00,
2013-04-21 15:55:00,77.6,72.7,30.01,East,96,0.0,2.0,85,0.00,,,0.02,Wunderground v.1.15,2013-04-21 19:55:00,
2013-04-21 16:05:00,77.2,71.6,30.01,East,96,0.0,2.0,83,0.00,,,0.02,Wunderground v.1.15,2013-04-21 20:05:00,
2013-04-21 16:10:00,77.1,71.5,30.00,East,96,0.0,2.0,83,0.00,,,0.02,Wunderground v.1.15,2013-04-21 20:10:00,
2013-04-21 16:20:00,77.3,71.4,30.00,East,96,0.0,2.0,82,0.00,,,0.02,Wunderground v.1.15,2013-04-21 20:20:00,
2013-04-21 16:30:00,77.6,72.0,30.01,East,96,0.0,2.0,83,0.00,,,0.02,Wunderground v.1.15,2013-04-21 20:30:00,
2013-04-21 16:40:00,77.8,71.9,30.01,East,96,0.0,2.0,82,0.00,,,0.02,Wunderground v.1.15,2013-04-21 20:40:00,
2013-04-21 16:45:00,78.0,72.1,30.01,East,96,0.0,2.0,82,0.00,,,0.02,Wunderground v.1.15,2013-04-21 20:45:00,
2013-04-21 16:55:00,78.1,71.8,30.01,East,96,0.0,2.0,81,0.00,,,0.02,Wunderground v.1.15,2013-04-21 20:55:00,
2013-04-21 17:05:00,78.1,71.8,30.01,East,96,0.0,2.0,81,0.00,,,0.02,Wunderground v.1.15,2013-04-21 21:05:00,
2013-04-21 17:15:00,78.2,71.9,30.01,East,96,0.0,2.0,81,0.00,,,0.02,Wunderground v.1.15,2013-04-21 21:15:00,
2013-04-21 17:25:00,78.0,71.3,30.01,East,96,0.0,2.0,80,0.00,,,0.02,Wunderground v.1.15,2013-04-21 21:25:00,
2013-04-21 17:30:00,78.0,71.0,30.01,East,96,0.0,2.0,79,0.00,,,0.02,Wunderground v.1.15,2013-04-21 21:30:00,
2013-04-21 17:40:00,78.0,71.0,30.00,East,96,0.0,2.0,79,0.00,,,0.02,Wunderground v.1.15,2013-04-21 21:40:00,
2013-04-21 17:50:00,78.0,71.7,30.01,NNW,331,1.0,2.0,81,0.00,,,0.02,Wunderground v.1.15,2013-04-21 21:50:00,
2013-04-21 17:55:00,77.3,71.0,30.01,NNW,327,1.0,3.0,81,0.00,,,0.02,Wunderground v.1.15,2013-04-21 21:55:00,
2013-04-21 18:05:00,76.5,70.9,30.01,NNW,327,1.0,2.0,83,0.00,,,0.02,Wunderground v.1.15,2013-04-21 22:05:00,
2013-04-21 18:10:00,76.4,70.9,30.01,NNW,327,0.0,2.0,83,0.00,,,0.02,Wunderground v.1.15,2013-04-21 22:10:00,
2013-04-21 18:20:00,76.2,71.0,30.01,NNW,327,0.0,2.0,84,0.00,,,0.02,Wunderground v.1.15,2013-04-21 22:20:00,
2013-04-21 18:35:00,76.1,70.9,30.02,NNW,327,0.0,2.0,84,0.00,,,0.02,Wunderground v.1.15,2013-04-21 22:35:00,
2013-04-21 18:40:00,76.0,70.8,30.02,NNW,327,0.0,2.0,84,0.00,,,0.02,Wunderground v.1.15,2013-04-21 22:40:00,
2013-04-21 18:50:00,75.8,70.6,30.03,NNW,327,0.0,2.0,84,0.00,,,0.02,Wunderground v.1.15,2013-04-21 22:50:00,
2013-04-21 18:55:00,75.8,70.6,30.03,NNW,327,0.0,2.0,84,0.00,,,0.02,Wunderground v.1.15,2013-04-21 22:55:00,
2013-04-21 19:05:00,75.9,70.7,30.04,NNW,327,0.0,2.0,84,0.00,,,0.02,Wunderground v.1.15,2013-04-21 23:05:00,
2013-04-21 19:10:00,75.9,70.4,30.04,NNW,327,0.0,2.0,83,0.00,,,0.02,Wunderground v.1.15,2013-04-21 23:10:00,
2013-04-21 19:20:00,76.0,70.8,30.05,NNW,327,0.0,2.0,84,0.00,,,0.02,Wunderground v.1.15,2013-04-21 23:20:00,
2013-04-21 19:25:00,76.0,70.5,30.05,NNW,327,0.0,2.0,83,0.00,,,0.02,Wunderground v.1.15,2013-04-21 23:25:00,
2013-04-21 19:35:00,75.9,70.4,30.05,NNW,327,0.0,2.0,83,0.00,,,0.02,Wunderground v.1.15,2013-04-21 23:35:00,
2013-04-21 19:40:00,75.9,70.0,30.04,NNW,327,1.0,2.0,82,0.00,,,0.02,Wunderground v.1.15,2013-04-21 23:40:00,
2013-04-21 19:50:00,75.6,70.1,30.04,NNW,343,2.0,2.0,83,0.00,,,0.02,Wunderground v.1.15,2013-04-21 23:50:00,
2013-04-21 19:55:00,75.3,69.8,30.04,NNW,343,1.0,3.0,83,0.00,,,0.02,Wunderground v.1.15,2013-04-21 23:55:00,
2013-04-21 20:05:00,74.5,69.0,30.04,NNW,342,2.0,2.0,83,0.00,,,0.02,Wunderground v.1.15,2013-04-22 00:05:00,
2013-04-21 20:15:00,74.2,69.4,30.04,NNW,342,1.0,2.0,85,0.00,,,0.02,Wunderground v.1.15,2013-04-22 00:15:00,
2013-04-21 20:20:00,74.1,69.6,30.04,NNW,342,1.0,1.0,86,0.00,,,0.02,Wunderground v.1.15,2013-04-22 00:20:00,
2013-04-21 20:25:00,74.1,70.0,30.04,NNW,342,1.0,2.0,87,0.00,,,0.02,Wunderground v.1.15,2013-04-22 00:25:00,
2013-04-21 20:35:00,74.1,70.0,30.05,NNW,341,1.0,2.0,87,0.00,,,0.02,Wunderground v.1.15,2013-04-22 00:35:00,
2013-04-21 20:40:00,74.0,69.9,30.04,NNW,342,0.0,2.0,87,0.00,,,0.02,Wunderground v.1.15,2013-04-22 00:40:00,
2013-04-21 20:50:00,73.9,69.8,30.05,NNW,342,0.0,2.0,87,0.00,,,0.02,Wunderground v.1.15,2013-04-22 00:50:00,
2013-04-21 21:00:00,73.9,69.8,30.05,NNW,342,0.0,2.0,87,0.00,,,0.02,Wunderground v.1.15,2013-04-22 01:00:00,
2013-04-21 21:10:00,73.9,69.8,30.05,NNW,342,0.0,2.0,87,0.00,,,0.02,Wunderground v.1.15,2013-04-22 01:10:00,
2013-04-21 21:15:00,73.9,69.8,30.05,NNW,341,0.0,2.0,87,0.00,,,0.02,Wunderground v.1.15,2013-04-22 01:15:00,
2013-04-21 21:25:00,73.8,69.7,30.06,NNW,342,0.0,2.0,87,0.00,,,0.02,Wunderground v.1.15,2013-04-22 01:25:00,
2013-04-21 21:30:00,73.8,69.7,30.06,NNW,342,0.0,2.0,87,0.00,,,0.02,Wunderground v.1.15,2013-04-22 01:30:00,
2013-04-21 21:35:00,73.7,69.6,30.06,NNW,341,1.0,2.0,87,0.00,,,0.02,Wunderground v.1.15,2013-04-22 01:35:00,
2013-04-21 21:40:00,73.7,69.6,30.06,NE,34,0.0,2.0,87,0.00,,,0.02,Wunderground v.1.15,2013-04-22 01:40:00,
2013-04-21 21:45:00,73.7,69.6,30.06,NE,34,0.0,2.0,87,0.00,,,0.02,Wunderground v.1.15,2013-04-22 01:45:00,
2013-04-21 21:50:00,73.6,69.5,30.06,NE,34,1.0,1.0,87,0.00,,,0.02,Wunderground v.1.15,2013-04-22 01:50:00,
2013-04-21 22:00:00,73.4,69.3,30.08,NE,34,0.0,2.0,87,0.00,,,0.02,Wunderground v.1.15,2013-04-22 02:00:00,
2013-04-21 22:05:00,73.4,69.3,30.08,NE,34,0.0,2.0,87,0.00,,,0.02,Wunderground v.1.15,2013-04-22 02:05:00,
2013-04-21 22:10:00,73.4,69.3,30.08,NE,34,0.0,2.0,87,0.00,,,0.02,Wunderground v.1.15,2013-04-22 02:10:00,
2013-04-21 22:15:00,73.3,69.2,30.08,NE,34,0.0,2.0,87,0.00,,,0.02,Wunderground v.1.15,2013-04-22 02:15:00,
2013-04-21 22:20:00,73.2,69.1,30.08,NE,34,0.0,2.0,87,0.00,,,0.02,Wunderground v.1.15,2013-04-22 02:20:00,
2013-04-21 22:30:00,73.1,69.0,30.07,NE,34,0.0,2.0,87,0.00,,,0.02,Wunderground v.1.15,2013-04-22 02:30:00,
2013-04-21 22:35:00,73.1,69.0,30.07,NE,34,0.0,2.0,87,0.00,,,0.02,Wunderground v.1.15,2013-04-22 02:35:00,
2013-04-21 22:40:00,73.0,68.9,30.07,NE,34,0.0,2.0,87,0.00,,,0.02,Wunderground v.1.15,2013-04-22 02:40:00,
2013-04-21 22:45:00,72.9,68.8,30.07,NE,34,0.0,2.0,87,0.00,,,0.02,Wunderground v.1.15,2013-04-22 02:45:00,
2013-04-21 22:50:00,73.0,68.9,30.08,NE,34,0.0,2.0,87,0.00,,,0.02,Wunderground v.1.15,2013-04-22 02:50:00,
2013-04-21 22:55:00,72.9,69.1,30.08,NE,34,0.0,2.0,88,0.00,,,0.02,Wunderground v.1.15,2013-04-22 02:55:00,
2013-04-21 23:00:00,72.8,69.0,30.08,NE,34,0.0,2.0,88,0.00,,,0.02,Wunderground v.1.15,2013-04-22 03:00:00,
2013-04-21 23:05:00,72.8,69.0,30.08,NE,34,0.0,2.0,88,0.00,,,0.02,Wunderground v.1.15,2013-04-22 03:05:00,
2013-04-21 23:15:00,72.5,68.7,30.07,NNE,32,0.0,2.0,88,0.00,,,0.02,Wunderground v.1.15,2013-04-22 03:15:00,
2013-04-21 23:20:00,72.5,68.7,30.07,NNE,32,0.0,2.0,88,0.00,,,0.02,Wunderground v.1.15,2013-04-22 03:20:00,
2013-04-21 23:25:00,72.4,69.0,30.07,NNE,32,0.0,2.0,89,0.00,,,0.02,Wunderground v.1.15,2013-04-22 03:25:00,
2013-04-21 23:35:00,72.2,68.8,30.07,NNE,32,0.0,2.0,89,0.00,,,0.02,Wunderground v.1.15,2013-04-22 03:35:00,
2013-04-21 23:45:00,72.0,68.6,30.07,NNE,32,0.0,2.0,89,0.00,,,0.02,Wunderground v.1.15,2013-04-22 03:45:00,
2013-04-21 23:50:00,71.8,68.7,30.07,NNE,32,0.0,2.0,90,0.00,,,0.02,Wunderground v.1.15,2013-04-22 03:50:00,
2013-04-21 23:55:00,71.7,68.3,30.07,NNE,32,0.0,2.0,89,0.00,,,0.02,Wunderground v.1.15,2013-04-22 03:55:00,